createdAt,value
2023-01-18T00:01:54.458Z,6.32
2023-01-18T00:04:39.788Z,6.88
2023-01-18T00:07:25.455Z,6.75
2023-01-18T00:10:11.031Z,6.63
2023-01-18T00:12:59.043Z,6.13
2023-01-18T00:15:44.806Z,7.03
2023-01-18T00:18:31.048Z,6.80
2023-01-18T00:21:17.096Z,6.85
2023-01-18T00:24:02.757Z,6.80
2023-01-18T00:26:48.615Z,6.93
2023-01-18T00:29:34.200Z,8.75
2023-01-18T00:32:19.197Z,10.73
2023-01-18T00:35:07.456Z,8.18
2023-01-18T00:37:53.855Z,9.00
2023-01-18T00:40:39.123Z,10.50
2023-01-18T00:43:40.216Z,11.77
2023-01-18T00:46:30.080Z,12.70
2023-01-18T00:49:15.357Z,8.13
2023-01-18T00:52:00.372Z,10.77
2023-01-18T00:54:45.645Z,11.13
2023-01-18T00:57:31.151Z,8.93
2023-01-18T01:00:16.676Z,12.70
2023-01-18T01:03:02.491Z,11.20
2023-01-18T01:06:06.347Z,8.93
2023-01-18T01:08:51.487Z,9.43
2023-01-18T01:11:36.908Z,8.13
2023-01-18T01:14:40.693Z,10.10
2023-01-18T01:17:46.319Z,7.47
2023-01-18T01:20:50.364Z,8.23
2023-01-18T01:23:54.412Z,8.23
2023-01-18T01:26:40.343Z,7.53
2023-01-18T01:29:25.644Z,8.05
2023-01-18T01:32:11.822Z,9.00
2023-01-18T01:34:56.892Z,6.82
2023-01-18T01:37:42.479Z,7.07
2023-01-18T01:40:27.672Z,7.22
2023-01-18T01:43:13.612Z,6.90
2023-01-18T01:45:59.024Z,7.55
2023-01-18T01:48:44.584Z,8.60
2023-01-18T01:51:31.201Z,6.47
2023-01-18T01:54:21.973Z,7.55
2023-01-18T01:57:14.367Z,7.45
2023-01-18T02:00:02.215Z,7.57
2023-01-18T02:03:04.817Z,7.45
2023-01-18T02:05:55.400Z,7.87
2023-01-18T02:08:40.515Z,6.97
2023-01-18T02:11:26.166Z,8.63
2023-01-18T02:14:15.966Z,7.78
2023-01-18T02:17:33.772Z,7.45
2023-01-18T02:20:43.578Z,7.60
2023-01-18T02:24:01.860Z,7.05
2023-01-18T02:26:56.737Z,6.28
2023-01-18T02:30:06.379Z,7.72
2023-01-18T02:32:55.459Z,6.93
2023-01-18T02:35:44.280Z,7.00
2023-01-18T02:38:41.352Z,6.82
2023-01-18T02:41:54.736Z,5.57
2023-01-18T02:45:05.144Z,6.55
2023-01-18T02:47:51.655Z,6.65
2023-01-18T02:50:37.339Z,6.57
2023-01-18T02:53:22.322Z,6.75
2023-01-18T02:56:40.631Z,6.55
2023-01-18T02:59:33.310Z,6.40
2023-01-18T03:02:23.067Z,7.10
2023-01-18T03:05:10.557Z,5.70
2023-01-18T03:08:11.049Z,5.47
2023-01-18T03:11:03.133Z,6.80
2023-01-18T03:14:07.861Z,7.90
2023-01-18T03:17:17.609Z,7.75
2023-01-18T03:20:09.597Z,6.97
2023-01-18T03:23:20.608Z,5.97
2023-01-18T03:26:16.459Z,6.13
2023-01-18T03:29:21.667Z,6.47
2023-01-18T03:32:35.823Z,5.85
2023-01-18T03:35:26.897Z,5.40
2023-01-18T03:38:12.866Z,5.75
2023-01-18T03:41:00.439Z,6.35
2023-01-18T03:43:48.441Z,5.53
2023-01-18T03:46:34.593Z,5.72
2023-01-18T03:49:20.123Z,5.00
2023-01-18T03:52:16.737Z,5.97
2023-01-18T03:55:20.435Z,5.47
2023-01-18T03:58:10.644Z,5.72
2023-01-18T04:00:56.667Z,6.72
2023-01-18T04:03:41.973Z,7.20
2023-01-18T04:06:27.843Z,5.28
2023-01-18T04:09:13.514Z,5.75
2023-01-18T04:11:58.881Z,5.65
2023-01-18T04:14:44.240Z,6.32
2023-01-18T04:17:29.461Z,5.70
2023-01-18T04:20:14.643Z,6.18
2023-01-18T04:23:00.193Z,5.25
2023-01-18T04:25:49.905Z,5.85
2023-01-18T04:28:35.103Z,5.47
2023-01-18T04:31:20.471Z,5.67
2023-01-18T04:34:05.774Z,5.35
2023-01-18T04:36:51.928Z,4.75
2023-01-18T04:39:36.946Z,6.63
2023-01-18T04:42:22.105Z,5.20
2023-01-18T04:45:08.328Z,5.97
2023-01-18T04:47:53.218Z,5.30
2023-01-18T04:50:39.475Z,6.20
2023-01-18T04:53:24.769Z,5.97
2023-01-18T04:56:11.134Z,5.55
2023-01-18T04:58:56.470Z,5.57
2023-01-18T05:01:41.979Z,5.30
2023-01-18T05:04:27.185Z,5.25
2023-01-18T05:07:12.467Z,4.72
2023-01-18T05:09:58.014Z,5.20
2023-01-18T05:12:43.790Z,5.60
2023-01-18T05:15:29.353Z,5.63
2023-01-18T05:18:14.916Z,6.00
2023-01-18T05:21:00.666Z,4.85
2023-01-18T05:23:46.337Z,6.43
2023-01-18T05:26:31.581Z,4.70
2023-01-18T05:29:17.842Z,5.45
2023-01-18T05:32:03.192Z,4.85
2023-01-18T05:34:48.477Z,4.50
2023-01-18T05:37:33.653Z,5.53
2023-01-18T05:40:20.652Z,5.43
2023-01-18T05:43:05.873Z,6.57
2023-01-18T05:45:51.725Z,5.60
2023-01-18T05:48:36.880Z,5.07
2023-01-18T05:51:22.103Z,7.53
2023-01-18T05:54:07.729Z,6.07
2023-01-18T05:56:53.217Z,5.32
2023-01-18T05:59:38.486Z,5.10
2023-01-18T06:02:24.905Z,4.70
2023-01-18T06:05:11.859Z,7.80
2023-01-18T06:07:57.255Z,7.40
2023-01-18T06:10:42.173Z,6.10
2023-01-18T06:13:30.532Z,5.70
2023-01-18T06:16:16.147Z,5.22
2023-01-18T06:19:01.311Z,6.53
2023-01-18T06:21:47.610Z,5.80
2023-01-18T06:24:33.257Z,4.97
2023-01-18T06:27:18.310Z,5.25
2023-01-18T06:30:06.214Z,5.10
2023-01-18T06:32:51.483Z,4.75
2023-01-18T06:35:37.056Z,4.53
2023-01-18T06:38:22.090Z,4.53
2023-01-18T06:41:08.284Z,5.38
2023-01-18T06:43:53.254Z,5.75
2023-01-18T06:46:38.252Z,6.68
2023-01-18T06:49:23.555Z,4.90
2023-01-18T06:52:08.829Z,5.18
2023-01-18T06:54:53.924Z,6.13
2023-01-18T06:57:39.342Z,5.43
2023-01-18T07:00:24.851Z,5.95
2023-01-18T07:03:10.970Z,4.60
2023-01-18T07:06:01.355Z,5.10
2023-01-18T07:08:47.922Z,4.68
2023-01-18T07:11:32.960Z,5.63
2023-01-18T07:14:18.407Z,5.32
2023-01-18T07:17:04.698Z,4.40
2023-01-18T07:19:49.946Z,5.80
2023-01-18T07:22:34.860Z,5.00
2023-01-18T07:25:20.687Z,6.97
2023-01-18T07:28:05.737Z,5.97
2023-01-18T07:30:50.826Z,5.30
2023-01-18T07:33:36.677Z,5.07
2023-01-18T07:36:22.849Z,5.68
2023-01-18T07:39:09.431Z,5.00
2023-01-18T07:41:54.756Z,6.80
2023-01-18T07:44:41.995Z,7.80
2023-01-18T07:47:27.032Z,8.63
2023-01-18T07:50:14.266Z,8.00
2023-01-18T07:53:06.707Z,6.38
2023-01-18T07:55:52.665Z,8.40
2023-01-18T07:58:38.076Z,5.83
2023-01-18T08:01:24.092Z,7.28
2023-01-18T08:04:09.805Z,8.05
2023-01-18T08:06:57.747Z,7.07
2023-01-18T08:09:43.999Z,6.85
2023-01-18T08:12:29.429Z,7.13
2023-01-18T08:15:14.895Z,6.80
2023-01-18T08:18:09.956Z,5.75
2023-01-18T08:20:55.699Z,6.88
2023-01-18T08:31:53.307Z,5.43
2023-01-18T08:34:38.806Z,7.38
2023-01-18T08:37:24.035Z,7.03
2023-01-18T08:40:10.058Z,6.13
2023-01-18T08:43:00.496Z,7.37
2023-01-18T08:45:50.488Z,7.25
2023-01-18T08:48:35.439Z,7.40
2023-01-18T08:51:22.844Z,5.90
2023-01-18T08:54:08.401Z,5.60
2023-01-18T08:56:54.270Z,4.97
2023-01-18T08:59:39.723Z,6.30
2023-01-18T09:02:25.913Z,5.93
2023-01-18T09:05:11.408Z,4.75
2023-01-18T09:07:57.769Z,5.45
2023-01-18T09:10:43.546Z,5.53
2023-01-18T09:13:28.616Z,5.47
2023-01-18T09:16:14.307Z,5.85
2023-01-18T09:18:59.852Z,5.45
2023-01-18T09:21:46.587Z,5.55
2023-01-18T09:24:32.270Z,4.47
2023-01-18T09:27:17.492Z,4.95
2023-01-18T09:30:02.515Z,4.93
2023-01-18T09:32:47.739Z,4.57
2023-01-18T09:35:33.652Z,5.18
2023-01-18T09:38:18.998Z,5.83
2023-01-18T09:41:22.236Z,4.72
2023-01-18T09:44:29.761Z,4.75
2023-01-18T09:47:23.508Z,5.88
2023-01-18T09:50:17.808Z,5.22
2023-01-18T09:53:17.929Z,6.37
2023-01-18T09:56:12.128Z,5.60
2023-01-18T09:59:21.019Z,5.15
2023-01-18T10:02:25.890Z,4.53
2023-01-18T10:05:16.275Z,5.95
2023-01-18T10:08:16.612Z,4.17
2023-01-18T10:11:16.956Z,6.53
2023-01-18T10:14:08.922Z,4.93
2023-01-18T10:17:03.023Z,4.43
2023-01-18T10:19:49.472Z,4.65
2023-01-18T10:22:50.470Z,4.50
2023-01-18T10:25:54.339Z,4.78
2023-01-18T10:28:45.176Z,5.32
2023-01-18T10:31:42.900Z,3.75
2023-01-18T10:34:34.582Z,7.55
2023-01-18T10:37:45.143Z,4.43
2023-01-18T10:40:30.237Z,4.75
2023-01-18T10:43:20.397Z,5.70
2023-01-18T10:46:19.357Z,4.88
2023-01-18T10:49:04.451Z,4.25
2023-01-18T10:51:49.776Z,4.63
2023-01-18T10:54:34.951Z,4.60
2023-01-18T10:57:25.468Z,4.07
2023-01-18T11:00:34.684Z,5.63
2023-01-18T11:03:20.140Z,5.15
2023-01-18T11:06:07.077Z,3.70
2023-01-18T11:08:53.191Z,3.83
2023-01-18T11:12:28.833Z,5.78
2023-01-18T11:15:14.307Z,3.72
2023-01-18T11:18:03.004Z,6.03
2023-01-18T11:53:37.006Z,4.73
2023-01-18T11:56:42.766Z,4.63
2023-01-18T11:59:32.064Z,4.18
2023-01-18T12:02:56.619Z,6.15
2023-01-18T12:06:05.549Z,4.47
2023-01-18T12:09:04.047Z,4.53
2023-01-18T12:12:19.252Z,3.28
2023-01-18T12:15:42.411Z,4.97
2023-01-18T12:19:05.949Z,4.22
2023-01-18T12:22:39.212Z,4.20
2023-01-18T12:25:57.657Z,4.23
2023-01-18T12:29:06.875Z,3.47
2023-01-18T12:31:55.345Z,4.68
2023-01-18T12:34:58.974Z,3.88
2023-01-18T12:38:02.601Z,3.13
2023-01-18T12:40:58.359Z,5.47
2023-01-18T12:43:57.934Z,3.85
2023-01-18T12:46:47.864Z,2.97
2023-01-18T12:49:40.302Z,4.70
2023-01-18T12:52:28.057Z,4.07
2023-01-18T12:55:21.062Z,3.33
2023-01-18T12:58:09.923Z,4.13
2023-01-18T13:01:00.537Z,4.00
2023-01-18T13:03:49.508Z,4.03
2023-01-18T13:06:38.410Z,4.82
2023-01-18T13:09:33.094Z,4.87
2023-01-18T13:12:18.322Z,4.03
2023-01-18T13:15:22.925Z,4.65
2023-01-18T13:19:04.030Z,3.25
2023-01-18T13:22:06.180Z,3.25
2023-01-18T13:25:13.167Z,3.70
2023-01-18T13:28:02.397Z,3.72
2023-01-18T13:30:56.555Z,3.90
2023-01-18T13:33:47.279Z,3.70
2023-01-18T13:36:50.477Z,6.85
2023-01-18T13:39:46.425Z,5.97
2023-01-18T13:42:38.142Z,7.07
2023-01-18T13:45:26.224Z,6.65
2023-01-18T13:48:50.923Z,5.43
2023-01-18T13:51:42.876Z,5.53
2023-01-18T13:54:28.596Z,6.67
2023-01-18T13:57:17.525Z,5.65
2023-01-18T14:00:04.387Z,6.80
2023-01-18T14:02:56.592Z,5.18
2023-01-18T14:05:48.659Z,5.65
2023-01-18T14:08:34.373Z,6.10
2023-01-18T14:11:29.261Z,4.60
2023-01-18T14:14:16.057Z,6.00
2023-01-18T14:17:16.728Z,6.57
2023-01-18T14:20:36.071Z,4.20
2023-01-18T14:23:30.912Z,5.10
2023-01-18T14:26:19.666Z,5.38
2023-01-18T14:29:34.059Z,5.28
2023-01-18T14:32:26.093Z,5.10
2023-01-18T14:35:25.796Z,4.80
2023-01-18T14:38:19.070Z,4.30
2023-01-18T14:41:07.904Z,4.50
2023-01-18T14:43:53.502Z,4.50
2023-01-18T14:46:38.883Z,4.47
2023-01-18T14:49:25.818Z,3.63
2023-01-18T14:52:15.102Z,4.83
2023-01-18T14:55:00.584Z,4.57
2023-01-18T14:57:51.336Z,3.38
2023-01-18T15:01:03.749Z,5.68
2023-01-18T15:03:54.846Z,4.72
2023-01-18T15:06:50.319Z,4.50
2023-01-18T15:09:38.562Z,3.78
2023-01-18T15:12:31.032Z,3.50
2023-01-18T15:15:25.530Z,4.10
2023-01-18T15:18:19.258Z,4.68
2023-01-18T15:21:11.945Z,3.90
2023-01-18T15:24:01.739Z,3.28
2023-01-18T15:26:52.855Z,5.10
2023-01-18T15:29:41.131Z,4.82
2023-01-18T15:32:30.094Z,3.97
2023-01-18T15:35:16.133Z,4.23
2023-01-18T15:38:04.917Z,3.47
2023-01-18T15:41:01.265Z,3.38
2023-01-18T15:43:47.853Z,4.60
2023-01-18T15:46:38.222Z,5.95
2023-01-18T15:49:23.461Z,3.93
2023-01-18T15:52:08.869Z,3.67
2023-01-18T15:54:54.352Z,3.45
2023-01-18T15:57:40.506Z,3.95
2023-01-18T16:00:53.768Z,6.43
2023-01-18T16:03:48.032Z,5.23
2023-01-18T16:06:37.107Z,4.32
2023-01-18T16:09:23.071Z,5.10
2023-01-18T16:12:08.103Z,4.03
2023-01-18T16:14:53.334Z,3.95
2023-01-18T16:17:38.800Z,5.43
2023-01-18T16:20:24.289Z,3.42
2023-01-18T16:23:17.796Z,5.20
2023-01-18T16:26:04.849Z,4.90
2023-01-18T16:28:51.636Z,6.75
2023-01-18T16:31:41.412Z,6.07
2023-01-18T16:34:27.005Z,6.00
2023-01-18T16:37:12.292Z,4.60
2023-01-18T16:39:57.682Z,8.45
2023-01-18T16:43:03.566Z,5.25
2023-01-18T16:45:51.380Z,6.57
2023-01-18T16:48:37.680Z,7.15
2023-01-18T16:51:25.920Z,6.65
2023-01-18T16:54:12.089Z,6.03
2023-01-18T16:56:57.922Z,4.35
2023-01-18T16:59:44.161Z,3.50
2023-01-18T17:02:29.488Z,6.47
2023-01-18T17:05:16.170Z,5.82
2023-01-18T17:08:02.091Z,4.65
2023-01-18T17:10:49.450Z,6.13
2023-01-18T17:13:34.474Z,5.57
2023-01-18T17:16:20.047Z,5.40
2023-01-18T17:19:10.225Z,4.97
2023-01-18T17:21:55.809Z,6.93
2023-01-18T17:24:41.107Z,6.50
2023-01-18T17:27:26.108Z,3.77
2023-01-18T17:30:14.355Z,5.35
2023-01-18T17:33:00.883Z,7.32
2023-01-18T17:35:48.453Z,7.85
2023-01-18T17:38:34.316Z,7.28
2023-01-18T17:41:27.765Z,5.50
2023-01-18T17:44:14.472Z,6.15
2023-01-18T17:46:59.838Z,8.98
2023-01-18T17:49:45.694Z,14.98
2023-01-18T17:52:30.861Z,12.15
2023-01-18T17:55:17.857Z,14.20
2023-01-18T17:58:04.981Z,9.95
2023-01-18T18:00:50.427Z,10.95
2023-01-18T18:03:40.631Z,9.50
2023-01-18T18:06:31.558Z,9.93
2023-01-18T18:09:20.503Z,12.17
2023-01-18T18:12:09.152Z,14.30
2023-01-18T18:14:55.831Z,9.30
2023-01-18T18:17:41.119Z,7.43
2023-01-18T18:20:26.357Z,8.48
2023-01-18T18:23:12.056Z,7.53
2023-01-18T18:25:58.268Z,8.18
2023-01-18T18:28:43.530Z,7.85
2023-01-18T18:31:29.106Z,11.55
2023-01-18T18:34:14.997Z,8.95
2023-01-18T18:37:01.055Z,7.87
2023-01-18T18:39:46.812Z,7.25
2023-01-18T18:42:31.940Z,8.02
2023-01-18T18:45:17.171Z,5.90
2023-01-18T18:48:02.505Z,7.93
2023-01-18T18:50:47.937Z,8.87
2023-01-18T18:53:38.560Z,8.40
2023-01-18T18:56:24.620Z,9.32
2023-01-18T18:59:09.636Z,9.38
2023-01-18T19:01:55.775Z,8.05
2023-01-18T19:04:41.077Z,6.63
2023-01-18T19:07:26.415Z,9.00
2023-01-18T19:10:14.389Z,7.50
2023-01-18T19:13:02.200Z,7.47
2023-01-18T19:15:49.371Z,7.43
2023-01-18T19:18:35.620Z,7.03
2023-01-18T19:21:20.692Z,7.13
2023-01-18T19:24:05.886Z,6.88
2023-01-18T19:26:51.155Z,7.88
2023-01-18T19:29:38.205Z,8.77
2023-01-18T19:32:24.302Z,7.10
2023-01-18T19:35:10.120Z,10.15
2023-01-18T19:37:55.660Z,9.70
2023-01-18T19:40:41.619Z,12.07
2023-01-18T19:43:27.714Z,20.10
2023-01-18T19:46:15.550Z,21.73
2023-01-18T19:49:03.250Z,23.25
2023-01-18T19:51:49.416Z,23.10
2023-01-18T19:54:34.561Z,18.98
2023-01-18T19:57:20.033Z,20.75
2023-01-18T20:00:09.914Z,20.23
2023-01-18T20:02:59.981Z,21.42
2023-01-18T20:05:45.773Z,20.77
2023-01-18T20:08:31.024Z,20.23
2023-01-18T20:11:16.778Z,22.20
2023-01-18T20:14:02.205Z,20.10
2023-01-18T20:16:47.846Z,20.08
2023-01-18T20:19:33.185Z,19.15
2023-01-18T20:22:18.630Z,22.08
2023-01-18T20:25:04.432Z,19.58
2023-01-18T20:27:49.534Z,22.97
2023-01-18T20:30:34.545Z,21.30
2023-01-18T20:33:19.809Z,21.52
2023-01-18T20:36:08.104Z,20.73
2023-01-18T20:38:53.828Z,19.92
2023-01-18T20:41:39.390Z,22.20
2023-01-18T20:44:24.797Z,20.10
2023-01-18T20:47:10.094Z,20.95
2023-01-18T20:49:55.399Z,18.98
2023-01-18T20:52:40.682Z,19.08
2023-01-18T20:55:26.264Z,21.70
2023-01-18T20:58:11.397Z,23.27
2023-01-18T21:00:56.685Z,24.08
2023-01-18T21:03:47.264Z,20.88
2023-01-18T21:06:33.238Z,21.75
2023-01-18T21:09:18.919Z,18.33
2023-01-18T21:12:04.473Z,21.30
2023-01-18T21:14:49.668Z,22.02
2023-01-18T21:17:35.686Z,22.10
2023-01-18T21:20:20.894Z,21.63
2023-01-18T21:23:06.235Z,24.40
2023-01-18T21:25:57.637Z,24.05
2023-01-18T21:28:42.832Z,23.35
2023-01-18T21:31:28.123Z,23.63
2023-01-18T21:34:13.658Z,23.42
2023-01-18T21:36:58.872Z,22.50
2023-01-18T21:39:44.392Z,24.67
2023-01-18T21:42:48.537Z,22.75
2023-01-18T21:45:52.154Z,27.20
2023-01-18T21:48:37.397Z,22.33
2023-01-18T21:51:41.371Z,21.60
2023-01-18T21:54:26.614Z,22.20
2023-01-18T21:57:12.344Z,23.17
2023-01-18T21:59:57.905Z,21.52
2023-01-18T22:02:43.167Z,19.95
2023-01-18T22:05:28.472Z,23.17
2023-01-18T22:08:13.979Z,21.95
2023-01-18T22:11:00.400Z,21.48
2023-01-18T22:13:45.913Z,17.75
2023-01-18T22:16:31.910Z,18.23
2023-01-18T22:19:19.039Z,18.30
2023-01-18T22:22:04.255Z,20.67
2023-01-18T22:24:49.560Z,17.52
2023-01-18T22:27:34.853Z,19.63
2023-01-18T22:30:21.050Z,15.93
2023-01-18T22:33:06.539Z,18.37
2023-01-18T22:35:57.439Z,18.23
2023-01-18T22:38:42.777Z,17.80
2023-01-18T22:41:29.463Z,16.67
2023-01-18T22:44:17.209Z,18.60
2023-01-18T22:47:02.213Z,15.10
2023-01-18T22:49:48.265Z,14.20
2023-01-18T22:52:33.678Z,16.15
2023-01-18T22:55:18.899Z,15.30
2023-01-18T22:58:04.456Z,14.68
2023-01-18T23:00:49.810Z,20.77
2023-01-18T23:03:35.034Z,14.40
2023-01-18T23:06:20.641Z,16.95
2023-01-18T23:09:06.297Z,14.90
2023-01-18T23:11:51.700Z,19.30
2023-01-18T23:14:55.723Z,15.33
2023-01-18T23:17:42.256Z,19.85
2023-01-18T23:20:27.706Z,13.73
2023-01-18T23:23:12.923Z,18.70
2023-01-18T23:25:59.914Z,16.67
2023-01-18T23:28:45.343Z,15.77
2023-01-18T23:31:30.593Z,15.77
2023-01-18T23:34:16.228Z,15.40
2023-01-18T23:37:01.432Z,14.43
2023-01-18T23:40:05.325Z,12.32
2023-01-18T23:43:12.347Z,15.10
